createdAt,value
2023-10-11T00:03:33.298Z,15.30
2023-10-11T00:06:05.198Z,15.00
2023-10-11T00:08:41.038Z,10.10
2023-10-11T00:11:08.049Z,10.90
2023-10-11T00:13:36.400Z,9.70
2023-10-11T00:16:08.136Z,7.80
2023-10-11T00:18:36.654Z,8.90
2023-10-11T00:21:16.366Z,8.00
2023-10-11T00:23:45.027Z,8.30
2023-10-11T00:26:14.978Z,6.60
2023-10-11T00:28:46.878Z,6.00
2023-10-11T00:31:18.373Z,6.30
2023-10-11T00:33:47.722Z,6.80
2023-10-11T00:36:16.851Z,5.90
2023-10-11T00:38:50.805Z,6.30
2023-10-11T00:41:21.967Z,4.20
2023-10-11T00:43:52.005Z,4.60
2023-10-11T00:46:22.640Z,6.50
2023-10-11T00:48:54.277Z,5.80
2023-10-11T00:51:24.471Z,4.10
2023-10-11T00:53:57.126Z,5.60
2023-10-11T00:56:27.283Z,5.00
2023-10-11T00:58:56.464Z,4.60
2023-10-11T01:01:23.605Z,8.00
2023-10-11T01:03:52.664Z,5.90
2023-10-11T01:06:20.326Z,5.50
2023-10-11T01:08:49.131Z,8.30
2023-10-11T01:11:16.962Z,6.40
2023-10-11T01:13:51.507Z,9.30
2023-10-11T01:16:21.324Z,7.00
2023-10-11T01:21:15.776Z,6.00
2023-10-11T01:23:44.021Z,7.10
2023-10-11T01:26:11.950Z,5.30
2023-10-11T01:28:52.388Z,6.60
2023-10-11T01:31:19.376Z,8.70
2023-10-11T01:33:49.797Z,8.20
2023-10-11T01:36:23.711Z,8.70
2023-10-11T01:38:51.410Z,7.00
2023-10-11T01:41:22.893Z,11.70
2023-10-11T01:43:50.720Z,9.00
2023-10-11T01:46:18.918Z,8.90
2023-10-11T01:48:46.294Z,7.90
2023-10-11T01:51:16.554Z,8.30
2023-10-11T01:53:44.956Z,6.50
2023-10-11T01:56:14.240Z,8.20
2023-10-11T01:58:44.103Z,7.30
2023-10-11T02:01:26.527Z,10.20
2023-10-11T02:03:55.905Z,9.50
2023-10-11T02:06:23.934Z,8.70
2023-10-11T02:08:53.756Z,9.00
2023-10-11T02:11:25.034Z,6.30
2023-10-11T02:13:53.374Z,8.50
2023-10-11T02:16:20.128Z,6.90
2023-10-11T02:18:59.513Z,6.60
2023-10-11T02:21:37.369Z,5.20
2023-10-11T02:24:10.222Z,6.00
2023-10-11T02:26:36.942Z,5.60
2023-10-11T02:29:07.505Z,4.50
2023-10-11T02:31:38.089Z,5.10
2023-10-11T02:34:13.501Z,6.10
2023-10-11T02:36:43.515Z,4.80
2023-10-11T02:39:22.745Z,3.90
2023-10-11T02:41:50.983Z,5.10
2023-10-11T02:44:23.229Z,4.00
2023-10-11T02:46:50.755Z,7.70
2023-10-11T02:49:20.593Z,4.30
2023-10-11T02:52:00.303Z,6.10
2023-10-11T02:54:39.105Z,5.50
2023-10-11T02:57:06.697Z,5.20
2023-10-11T02:59:33.778Z,4.80
2023-10-11T03:02:00.662Z,4.00
2023-10-11T03:04:39.613Z,4.10
2023-10-11T03:07:13.413Z,9.00
2023-10-11T03:09:43.289Z,8.10
2023-10-11T03:12:20.257Z,4.60
2023-10-11T03:14:47.876Z,4.60
2023-10-11T03:17:15.605Z,6.80
2023-10-11T03:19:43.093Z,9.70
2023-10-11T03:22:12.268Z,9.40
2023-10-11T03:24:41.413Z,7.00
2023-10-11T03:27:13.770Z,3.80
2023-10-11T03:29:40.994Z,7.20
2023-10-11T03:32:07.993Z,5.50
2023-10-11T03:34:34.870Z,8.00
2023-10-11T03:37:10.859Z,9.60
2023-10-11T03:39:37.672Z,9.90
2023-10-11T03:42:07.819Z,15.20
2023-10-11T03:44:40.615Z,13.40
2023-10-11T03:47:10.555Z,14.80
2023-10-11T03:49:50.428Z,6.90
2023-10-11T03:52:31.280Z,8.30
2023-10-11T03:55:10.285Z,8.60
2023-10-11T03:57:41.942Z,9.30
2023-10-11T04:00:25.906Z,9.70
2023-10-11T04:02:59.384Z,19.10
2023-10-11T04:05:34.800Z,16.50
2023-10-11T04:08:06.502Z,11.50
2023-10-11T04:10:40.267Z,10.30
2023-10-11T04:13:14.996Z,12.80
2023-10-11T04:15:42.480Z,14.00
2023-10-11T04:18:28.705Z,18.40
2023-10-11T04:21:24.893Z,20.30
2023-10-11T04:23:58.001Z,22.50
2023-10-11T04:26:36.217Z,15.30
2023-10-11T04:29:19.426Z,21.90
2023-10-11T04:32:01.826Z,18.30
2023-10-11T04:34:32.402Z,14.50
2023-10-11T04:37:07.687Z,12.10
2023-10-11T04:39:34.841Z,11.20
2023-10-11T04:42:03.076Z,16.00
2023-10-11T04:44:42.864Z,13.00
2023-10-11T04:47:10.359Z,16.20
2023-10-11T04:49:37.141Z,11.50
2023-10-11T04:52:11.399Z,18.50
2023-10-11T04:54:42.981Z,15.10
2023-10-11T04:57:17.787Z,14.20
2023-10-11T04:59:47.251Z,12.80
2023-10-11T05:02:19.535Z,14.60
2023-10-11T05:04:47.594Z,10.90
2023-10-11T05:07:20.186Z,13.90
2023-10-11T05:09:57.327Z,13.10
2023-10-11T05:12:24.663Z,13.10
2023-10-11T05:14:54.258Z,13.50
2023-10-11T05:17:23.704Z,15.30
2023-10-11T05:20:04.698Z,12.10
2023-10-11T05:22:49.699Z,15.40
2023-10-11T05:25:20.923Z,11.60
2023-10-11T05:27:50.195Z,18.30
2023-10-11T05:30:28.436Z,14.30
2023-10-11T05:32:55.853Z,18.40
2023-10-11T05:35:24.707Z,17.80
2023-10-11T05:38:13.051Z,15.70
2023-10-11T05:40:58.230Z,21.30
2023-10-11T05:43:43.483Z,21.00
2023-10-11T05:46:28.973Z,23.50
2023-10-11T05:49:14.337Z,18.60
2023-10-11T05:51:41.331Z,15.40
2023-10-11T05:54:11.814Z,16.60
2023-10-11T05:56:48.292Z,12.70
2023-10-11T05:59:17.769Z,18.00
2023-10-11T06:01:44.885Z,16.10
2023-10-11T06:04:14.637Z,14.10
2023-10-11T06:06:47.488Z,14.50
2023-10-11T06:09:18.657Z,11.80
2023-10-11T06:11:48.795Z,15.00
2023-10-11T06:14:17.634Z,12.30
2023-10-11T06:16:50.230Z,15.40
2023-10-11T06:19:17.286Z,13.80
2023-10-11T06:21:56.939Z,10.70
2023-10-11T06:24:31.166Z,12.00
2023-10-11T06:27:12.109Z,12.30
2023-10-11T06:29:39.932Z,7.90
2023-10-11T06:32:19.969Z,13.50
2023-10-11T06:34:48.187Z,7.80
2023-10-11T06:37:18.728Z,7.90
2023-10-11T06:39:46.558Z,7.90
2023-10-11T06:42:14.884Z,8.00
2023-10-11T06:44:48.332Z,7.50
2023-10-11T06:47:16.197Z,12.20
2023-10-11T06:49:48.220Z,7.50
2023-10-11T06:52:25.745Z,8.80
2023-10-11T06:55:12.193Z,9.10
2023-10-11T06:57:42.548Z,5.50
2023-10-11T07:00:21.584Z,6.90
2023-10-11T07:03:10.349Z,7.00
2023-10-11T07:05:41.314Z,8.80
2023-10-11T07:08:11.703Z,4.70
2023-10-11T07:10:46.002Z,3.30
2023-10-11T07:13:13.876Z,3.10
2023-10-11T07:15:47.596Z,3.90
2023-10-11T07:18:23.230Z,3.40
2023-10-11T07:20:58.773Z,3.60
2023-10-11T07:23:35.893Z,2.80
2023-10-11T07:26:23.908Z,6.10
2023-10-11T07:28:52.179Z,4.00
2023-10-11T07:31:32.684Z,3.30
2023-10-11T07:34:00.394Z,3.20
2023-10-11T07:36:29.698Z,3.60
2023-10-11T07:38:57.425Z,3.20
2023-10-11T07:41:29.008Z,2.80
2023-10-11T07:43:57.342Z,2.10
2023-10-11T07:46:25.045Z,2.30
2023-10-11T07:49:04.891Z,2.30
2023-10-11T07:51:36.841Z,3.30
2023-10-11T07:54:08.040Z,4.40
2023-10-11T07:56:38.646Z,4.60
2023-10-11T07:59:09.382Z,2.40
2023-10-11T08:01:46.946Z,4.30
2023-10-11T08:04:18.534Z,3.00
2023-10-11T08:06:45.947Z,2.90
2023-10-11T08:09:20.303Z,3.50
2023-10-11T08:11:53.881Z,1.10
2023-10-11T08:14:24.458Z,1.30
2023-10-11T08:16:53.119Z,2.50
2023-10-11T08:19:22.063Z,5.10
2023-10-11T08:22:00.907Z,1.70
2023-10-11T08:24:28.883Z,4.10
2023-10-11T08:27:08.923Z,2.20
2023-10-11T08:29:43.602Z,3.40
2023-10-11T08:32:15.644Z,4.40
2023-10-11T08:34:46.698Z,5.10
2023-10-11T08:37:15.389Z,4.70
2023-10-11T08:39:44.879Z,3.90
2023-10-11T08:42:15.853Z,4.70
2023-10-11T08:44:50.530Z,3.80
2023-10-11T08:47:22.336Z,3.20
2023-10-11T08:49:53.866Z,4.60
2023-10-11T08:52:30.436Z,7.90
2023-10-11T08:55:01.884Z,5.30
2023-10-11T08:57:32.894Z,7.40
2023-10-11T09:02:34.898Z,5.10
2023-10-11T09:05:32.145Z,5.70
2023-10-11T09:08:07.214Z,7.50
2023-10-11T09:10:40.380Z,6.80
2023-10-11T09:13:11.878Z,8.00
2023-10-11T09:15:44.890Z,7.60
2023-10-11T09:18:22.552Z,8.30
2023-10-11T09:23:48.065Z,4.10
2023-10-11T09:29:16.865Z,5.20
2023-10-11T09:32:05.904Z,6.70
2023-10-11T09:34:42.919Z,4.30
2023-10-11T09:37:13.937Z,4.40
2023-10-11T09:47:57.906Z,5.60
2023-10-11T09:50:41.812Z,3.80
2023-10-11T09:53:13.890Z,4.40
2023-10-11T09:55:52.553Z,5.50
2023-10-11T09:58:29.510Z,3.50
2023-10-11T10:01:09.345Z,4.80
2023-10-11T10:03:39.338Z,4.20
2023-10-11T10:06:19.208Z,4.00
2023-10-11T10:08:50.953Z,5.40
2023-10-11T10:11:20.464Z,4.90
2023-10-11T10:14:02.560Z,5.80
2023-10-11T10:17:13.876Z,5.40
2023-10-11T10:19:41.454Z,4.60
2023-10-11T10:22:23.822Z,5.20
2023-10-11T10:24:57.005Z,7.00
2023-10-11T10:27:23.915Z,5.90
2023-10-11T10:29:55.414Z,14.60
2023-10-11T10:32:22.384Z,16.80
2023-10-11T10:34:49.326Z,12.70
2023-10-11T10:37:58.316Z,15.00
2023-10-11T10:40:43.598Z,6.20
2023-10-11T10:43:21.162Z,5.90
2023-10-11T10:45:52.470Z,7.70
2023-10-11T10:48:20.592Z,22.60
2023-10-11T10:50:49.676Z,22.80
2023-10-11T10:53:18.015Z,18.60
2023-10-11T10:55:45.333Z,21.00
2023-10-11T10:58:19.407Z,17.80
2023-10-11T11:00:53.115Z,20.80
2023-10-11T11:03:21.267Z,20.40
2023-10-11T11:06:01.878Z,13.40
2023-10-11T11:08:32.514Z,8.20
2023-10-11T11:11:19.760Z,7.70
2023-10-11T11:13:50.955Z,5.70
2023-10-11T11:16:18.878Z,8.40
2023-10-11T11:18:45.958Z,11.30
2023-10-11T11:21:20.778Z,8.60
2023-10-11T11:23:50.343Z,7.50
2023-10-11T11:28:52.023Z,4.90
2023-10-11T11:31:24.817Z,8.80
2023-10-11T11:34:05.995Z,9.60
2023-10-11T11:37:00.412Z,5.40
2023-10-11T11:39:50.389Z,6.10
2023-10-11T11:42:20.508Z,2.80
2023-10-11T11:44:48.140Z,5.40
2023-10-11T11:47:23.542Z,6.80
2023-10-11T11:49:55.091Z,4.20
2023-10-11T11:52:22.585Z,6.20
2023-10-11T11:54:49.364Z,6.40
2023-10-11T11:57:16.277Z,4.50
2023-10-11T11:59:44.645Z,5.90
2023-10-11T12:02:17.802Z,5.50
2023-10-11T12:04:45.332Z,5.10
2023-10-11T12:07:12.426Z,7.40
2023-10-11T12:09:52.138Z,6.70
2023-10-11T12:12:26.698Z,4.30
2023-10-11T12:14:53.717Z,4.90
2023-10-11T12:17:21.100Z,4.80
2023-10-11T12:19:53.976Z,5.00
2023-10-11T12:22:22.839Z,7.00
2023-10-11T12:24:50.835Z,5.70
2023-10-11T12:27:18.967Z,5.50
2023-10-11T12:30:01.095Z,2.90
2023-10-11T12:32:36.947Z,8.00
2023-10-11T12:35:08.603Z,5.20
2023-10-11T12:37:36.202Z,4.20
2023-10-11T12:40:12.412Z,6.30
2023-10-11T12:42:45.627Z,6.00
2023-10-11T12:45:17.398Z,6.30
2023-10-11T12:47:45.371Z,3.90
2023-10-11T12:50:15.649Z,5.70
2023-10-11T12:52:44.526Z,3.80
2023-10-11T12:55:13.698Z,5.00
2023-10-11T12:57:41.746Z,4.10
2023-10-11T13:00:37.386Z,3.00
2023-10-11T13:03:24.494Z,3.70
2023-10-11T13:05:53.468Z,3.50
2023-10-11T13:08:29.379Z,3.10
2023-10-11T13:10:56.430Z,4.50
2023-10-11T13:13:23.921Z,4.10
2023-10-11T13:16:02.343Z,3.20
2023-10-11T13:18:34.011Z,2.40
2023-10-11T13:21:01.150Z,2.90
2023-10-11T13:23:30.175Z,5.80
2023-10-11T13:26:09.914Z,1.50
2023-10-11T13:28:41.136Z,3.70
2023-10-11T13:31:11.030Z,2.70
2023-10-11T13:33:39.199Z,2.80
2023-10-11T13:36:09.860Z,2.50
2023-10-11T13:38:38.139Z,2.70
2023-10-11T13:41:06.726Z,2.60
2023-10-11T13:43:38.090Z,3.60
2023-10-11T13:46:08.262Z,3.50
2023-10-11T13:48:42.523Z,4.30
2023-10-11T13:51:17.507Z,2.60
2023-10-11T13:53:45.023Z,2.70
2023-10-11T13:56:25.438Z,2.30
2023-10-11T13:58:53.365Z,3.30
2023-10-11T14:01:36.502Z,3.60
2023-10-11T14:04:19.805Z,3.00
2023-10-11T14:07:22.148Z,2.40
2023-10-11T14:09:55.067Z,2.10
2023-10-11T14:12:27.936Z,2.30
2023-10-11T14:14:55.966Z,3.50
2023-10-11T14:17:25.669Z,4.00
2023-10-11T14:19:54.121Z,2.90
2023-10-11T14:22:24.738Z,2.60
2023-10-11T14:24:52.533Z,3.10
2023-10-11T14:27:20.509Z,3.80
2023-10-11T14:29:48.290Z,2.70
2023-10-11T14:32:17.504Z,2.50
2023-10-11T14:34:46.435Z,2.00
2023-10-11T14:37:16.665Z,1.70
2023-10-11T14:39:47.932Z,2.90
2023-10-11T14:42:16.036Z,3.00
2023-10-11T14:44:43.450Z,2.90
2023-10-11T14:47:11.479Z,2.40
2023-10-11T14:49:38.609Z,3.60
2023-10-11T14:52:08.586Z,3.20
2023-10-11T14:57:08.748Z,3.50
2023-10-11T14:59:35.921Z,2.70
2023-10-11T15:02:03.829Z,2.20
2023-10-11T15:04:34.468Z,3.80
2023-10-11T15:07:07.231Z,3.80
2023-10-11T15:09:35.440Z,3.40
2023-10-11T15:12:03.180Z,19.20
2023-10-11T15:14:30.331Z,9.30
2023-10-11T15:17:00.403Z,4.20
2023-10-11T15:19:29.063Z,4.00
2023-10-11T15:21:56.228Z,4.30
2023-10-11T15:24:24.060Z,4.60
2023-10-11T15:26:51.442Z,5.30
2023-10-11T15:29:18.668Z,2.00
2023-10-11T15:31:46.262Z,2.70
2023-10-11T15:34:15.036Z,3.80
2023-10-11T15:36:43.437Z,4.80
2023-10-11T15:39:11.441Z,2.60
2023-10-11T15:41:38.984Z,4.50
2023-10-11T15:44:06.108Z,4.30
2023-10-11T15:46:34.992Z,4.60
2023-10-11T15:49:08.349Z,6.90
2023-10-11T15:51:35.546Z,8.00
2023-10-11T15:54:03.054Z,6.20
2023-10-11T15:56:32.742Z,9.20
2023-10-11T15:59:00.139Z,10.80
2023-10-11T16:01:28.624Z,12.00
2023-10-11T16:03:57.187Z,12.40
2023-10-11T16:06:27.035Z,10.70
2023-10-11T16:08:54.244Z,14.10
2023-10-11T16:11:23.013Z,12.40
2023-10-11T16:13:51.175Z,11.60
2023-10-11T16:16:18.909Z,12.20
2023-10-11T16:18:47.090Z,15.60
2023-10-11T16:21:18.564Z,15.10
2023-10-11T16:23:47.346Z,10.80
2023-10-11T16:26:15.199Z,12.80
2023-10-11T16:28:43.303Z,12.60
2023-10-11T16:31:13.589Z,9.50
2023-10-11T16:33:42.420Z,9.30
2023-10-11T16:36:11.789Z,6.50
2023-10-11T16:38:45.969Z,6.80
2023-10-11T16:41:19.040Z,8.10
2023-10-11T16:43:46.322Z,8.90
2023-10-11T16:46:36.728Z,5.80
2023-10-11T16:49:05.374Z,10.90
2023-10-11T16:51:33.019Z,8.00
2023-10-11T16:54:00.935Z,6.30
2023-10-11T16:56:35.022Z,6.60
2023-10-11T16:59:06.239Z,5.70
2023-10-11T17:01:36.001Z,6.40
2023-10-11T17:04:08.166Z,7.50
2023-10-11T17:06:36.201Z,5.60
2023-10-11T17:11:35.741Z,7.00
2023-10-11T17:14:09.288Z,4.90
2023-10-11T17:16:37.962Z,5.50
2023-10-11T17:19:09.709Z,3.00
2023-10-11T17:21:46.655Z,6.00
2023-10-11T17:24:14.744Z,3.50
2023-10-11T17:26:43.056Z,6.40
2023-10-11T17:29:11.272Z,14.60
2023-10-11T17:31:38.500Z,9.30
2023-10-11T17:34:08.802Z,7.60
2023-10-11T17:36:38.158Z,6.10
2023-10-11T17:39:06.071Z,7.40
2023-10-11T17:41:39.055Z,7.40
2023-10-11T17:44:08.965Z,7.50
2023-10-11T17:46:36.786Z,8.90
2023-10-11T17:49:05.162Z,7.20
2023-10-11T17:51:32.601Z,8.30
2023-10-11T17:54:02.838Z,7.70
2023-10-11T17:56:31.140Z,6.50
2023-10-11T17:59:09.797Z,7.20
2023-10-11T18:01:58.223Z,6.50
2023-10-11T18:04:25.611Z,10.10
2023-10-11T18:06:54.054Z,7.10
2023-10-11T18:09:21.906Z,9.00
2023-10-11T18:11:49.222Z,9.50
2023-10-11T18:14:25.319Z,7.30
2023-10-11T18:16:52.523Z,5.30
2023-10-11T18:19:21.268Z,6.10
2023-10-11T18:21:49.429Z,6.80
2023-10-11T18:24:19.024Z,6.30
2023-10-11T18:26:48.995Z,6.80
2023-10-11T18:29:19.212Z,7.20
2023-10-11T18:31:49.092Z,6.40
2023-10-11T18:34:18.547Z,4.80
2023-10-11T18:36:48.291Z,4.70
2023-10-11T18:39:18.974Z,6.00
2023-10-11T18:41:49.733Z,16.80
2023-10-11T18:44:17.084Z,8.20
2023-10-11T18:46:47.518Z,6.10
2023-10-11T18:49:17.339Z,6.60
2023-10-11T18:51:45.415Z,6.80
2023-10-11T18:54:14.438Z,4.60
2023-10-11T18:56:41.810Z,5.90
2023-10-11T18:59:09.415Z,6.90
2023-10-11T19:01:36.482Z,5.50
2023-10-11T19:04:10.468Z,6.40
2023-10-11T19:06:39.667Z,6.10
2023-10-11T19:09:07.678Z,6.70
2023-10-11T19:11:37.552Z,6.50
2023-10-11T19:16:33.458Z,7.70
2023-10-11T19:19:01.140Z,9.40
2023-10-11T19:21:28.628Z,9.10
2023-10-11T19:23:57.027Z,6.80
2023-10-11T19:26:24.153Z,6.00
2023-10-11T19:28:53.096Z,5.10
2023-10-11T19:31:20.204Z,6.40
2023-10-11T19:33:47.809Z,6.90
2023-10-11T19:36:16.725Z,5.20
2023-10-11T19:38:43.860Z,6.30
2023-10-11T19:41:11.948Z,5.70
2023-10-11T19:43:38.794Z,7.80
2023-10-11T19:46:07.400Z,8.90
2023-10-11T19:48:35.978Z,7.30
2023-10-11T19:51:03.052Z,8.30
2023-10-11T19:53:30.336Z,5.80
2023-10-11T19:55:58.944Z,9.30
2023-10-11T19:58:26.272Z,6.70
2023-10-11T20:00:53.485Z,7.20
2023-10-11T20:03:27.613Z,6.70
2023-10-11T20:05:55.048Z,8.20
2023-10-11T20:08:23.292Z,10.00
2023-10-11T20:11:01.783Z,7.90
2023-10-11T20:13:28.615Z,8.60
2023-10-11T20:15:56.954Z,8.50
2023-10-11T20:18:24.321Z,9.60
2023-10-11T20:20:55.830Z,7.80
2023-10-11T20:23:23.333Z,9.70
2023-10-11T20:25:51.378Z,11.30
2023-10-11T20:28:18.509Z,13.90
2023-10-11T20:30:52.810Z,14.90
2023-10-11T20:33:23.429Z,13.30
2023-10-11T20:35:52.614Z,16.10
2023-10-11T20:38:21.557Z,15.60
2023-10-11T20:40:48.685Z,77.50
2023-10-11T20:43:17.969Z,39.60
2023-10-11T20:45:47.511Z,21.60
2023-10-11T20:48:15.693Z,22.90
2023-10-11T20:50:43.792Z,20.30
2023-10-11T20:53:11.743Z,27.60
2023-10-11T20:55:43.419Z,19.10
2023-10-11T20:58:15.324Z,20.90
2023-10-11T21:01:06.269Z,19.60
2023-10-11T21:06:03.277Z,16.60
2023-10-11T21:08:31.482Z,21.30
2023-10-11T21:10:58.571Z,19.90
2023-10-11T21:13:29.491Z,20.60
2023-10-11T21:16:00.588Z,21.90
2023-10-11T21:18:27.973Z,24.30
2023-10-11T21:20:55.259Z,25.20
2023-10-11T21:23:22.695Z,27.50
2023-10-11T21:26:03.032Z,28.40
2023-10-11T21:28:32.097Z,28.60
2023-10-11T21:30:59.758Z,25.60
2023-10-11T21:33:29.616Z,30.50
2023-10-11T21:35:59.519Z,28.80
2023-10-11T21:38:26.377Z,25.30
2023-10-11T21:40:56.016Z,26.30
2023-10-11T21:43:24.035Z,20.60
2023-10-11T21:45:51.676Z,23.80
2023-10-11T21:48:20.081Z,23.20
2023-10-11T21:50:46.840Z,22.40
2023-10-11T21:53:14.655Z,20.10
2023-10-11T21:55:42.821Z,19.50
2023-10-11T21:58:11.120Z,18.40
2023-10-11T22:00:48.274Z,19.30
2023-10-11T22:03:20.117Z,16.20
2023-10-11T22:06:05.396Z,15.60
2023-10-11T22:08:36.086Z,14.80
2023-10-11T22:11:04.833Z,15.00
2023-10-11T22:13:34.650Z,12.40
2023-10-11T22:16:03.021Z,12.70
2023-10-11T22:18:30.007Z,9.90
2023-10-11T22:20:59.252Z,11.10
2023-10-11T22:23:26.508Z,9.70
2023-10-11T22:25:53.457Z,9.50
2023-10-11T22:28:20.356Z,9.50
2023-10-11T22:30:47.952Z,7.40
2023-10-11T22:33:15.051Z,7.50
2023-10-11T22:35:45.091Z,7.80
2023-10-11T22:38:12.064Z,5.50
2023-10-11T22:40:39.485Z,6.00
2023-10-11T22:43:27.824Z,6.00
2023-10-11T22:45:57.829Z,5.30
2023-10-11T22:48:25.472Z,9.20
2023-10-11T22:50:52.528Z,4.10
2023-10-11T22:53:23.259Z,3.60
2023-10-11T22:55:50.775Z,4.90
2023-10-11T22:58:18.853Z,4.50
2023-10-11T23:00:46.690Z,4.20
2023-10-11T23:03:14.326Z,3.10
2023-10-11T23:05:43.865Z,3.40
2023-10-11T23:08:10.756Z,4.90
2023-10-11T23:10:44.301Z,2.80
2023-10-11T23:13:12.437Z,5.70
2023-10-11T23:16:05.680Z,4.10
2023-10-11T23:18:44.037Z,3.10
2023-10-11T23:21:16.433Z,2.00
2023-10-11T23:23:43.261Z,3.30
2023-10-11T23:26:12.970Z,5.00
2023-10-11T23:28:40.222Z,2.50
2023-10-11T23:31:16.632Z,2.70
2023-10-11T23:33:50.975Z,3.10
2023-10-11T23:36:34.700Z,2.30
2023-10-11T23:39:02.186Z,2.10
2023-10-11T23:41:36.265Z,2.20
2023-10-11T23:44:22.704Z,4.70
2023-10-11T23:46:57.285Z,2.60
2023-10-11T23:49:41.124Z,2.30
2023-10-11T23:52:21.454Z,3.70
2023-10-11T23:54:51.193Z,2.50
2023-10-11T23:57:22.649Z,3.10
2023-10-11T23:59:50.250Z,2.90
